Terminal Aerodrome Forecast
Issued by NWS

Home | Current Version | Previous Version | Text Only | Print | Product List | Glossary On
Versions: 1 2 3 4 5 6 7 8 9 10 11 12 13 14 15 16 17 18 19 20 21 22 23 24 25
000
FTUS46 KMFR 250647 AAA
TAFOTH
TAF AMD
KOTH 250647Z 2507/2606 01006KT P6SM VCSH SCT028 BKN035 BKN050
      TEMPO 2507/2508 02009G18KT -SHRA BKN028 OVC040
     FM250800 02006KT P6SM -SHRA OVC020
     FM252100 31008KT P6SM SCT025 BKN040=

USA.gov is the U.S. government's official web portal to all federal, state and local government web resources and services.